This is the latest recevied weather packets stored in our database for station/object WX5II-15. If no packets are shown the sender has not sent any weather packets the latest 10 day(s).
| Time | Temp. | Humidity | Pressure | Rain* | Wind** | Luminosity | Snow |
|---|---|---|---|---|---|---|---|
| 1788052062 | 31.11° C | 54% | 1006 hPa | 0 mm | - | - | - |
| 1788051462 | 31.67° C | 53% | 1006 hPa | 0 mm | - | - | - |
| 1788050862 | 32.22° C | 52% | 1005.7 hPa | 0 mm | - | - | - |
| 1788050260 | 32.78° C | 50% | 1005.7 hPa | 0 mm | - | - | - |
| 1788049660 | 32.78° C | 49% | 1005.7 hPa | 0 mm | - | - | - |
| 1788049059 | 33.33° C | 47% | 1005.7 hPa | 0 mm | - | - | - |
| 1788048459 | 33.89° C | 45% | 1005.7 hPa | 0 mm | - | - | - |
| 1788047858 | 34.44° C | 44% | 1005.7 hPa | 0 mm | - | - | - |
| 1788047258 | 34.44° C | 44% | 1005.7 hPa | 0 mm | - | - | - |
| 1788046657 | 35° C | 44% | 1005.7 hPa | 0 mm | - | - | - |
| 1788046057 | 36.11° C | 42% | 1005.7 hPa | 0 mm | - | - | - |
| 1788045456 | 37.22° C | 41% | 1005.7 hPa | 0 mm | - | - | - |
| 1788044855 | 37.22° C | 41% | 1005.4 hPa | 0 mm | - | - | - |
| 1788044255 | 37.22° C | 41% | 1005.4 hPa | 0 mm | - | - | - |
| 1788043654 | 37.78° C | 41% | 1005.4 hPa | 0 mm | - | - | - |
| 1788043054 | 37.78° C | 41% | 1005.7 hPa | 0 mm | - | - | - |
| 1788042453 | 37.78° C | 41% | 1005.4 hPa | 0 mm | - | - | - |
| 1788041853 | 37.78° C | 40% | 1005.4 hPa | 0 mm | - | - | - |
| 1788041259 | 37.78° C | 41% | 1005.7 hPa | 0 mm | - | - | - |
| 1788040051 | 38.89° C | 40% | 1005.7 hPa | 0 mm | - | - | - |
| 1788039450 | 39.44° C | 39% | 1005.7 hPa | 0 mm | - | - | - |
| 1788038850 | 38.89° C | 39% | 1005.7 hPa | 0 mm | - | - | - |
| 1788038249 | 37.78° C | 41% | 1005.7 hPa | 0 mm | - | - | - |
| 1788037649 | 37.22° C | 42% | 1006 hPa | 0 mm | - | - | - |
| 1788037048 | 38.89° C | 38% | 1006 hPa | 0 mm | - | - | - |
* Rain latest hour (hover to see other rain measurements)
** Current wind speed in m/s (hover to see current wind gust speed)